< < Back
Terminal Aerodrome Forecast


Current Version              Previous Versions:   1  2  3  4  5  6  7  8  9  

Terminal Aerodrome Forecast

799
FTUS42 KFFC 060331 AAB
TAFMCN
TAF AMD
KMCN 060331Z 0604/0624 32009KT P6SM SKC
     FM060600 30008KT P6SM SKC
     FM061300 32012G22KT P6SM SKC=

Latest METAR

559
SAUS80 KWBC 061900 RRE
MTRMCN
METAR KMCN 061953Z 36008G17KT 10SM BKN070 BKN085 22/06 A2988 RMK AO2
SLP115 T02170061


USA.gov is the U.S. government's official web portal to all federal, state and local government web resources and services.